createdAt,value
2023-01-29T00:00:17.349Z,100614.44
2023-01-29T00:02:45.958Z,100607.13
2023-01-29T00:05:27.083Z,100616.31
2023-01-29T00:07:57.528Z,100609.66
2023-01-29T00:10:26.676Z,100610.88
2023-01-29T00:12:55.192Z,100612.72
2023-01-29T00:15:23.806Z,100621.59
2023-01-29T00:17:52.008Z,100627.97
2023-01-29T00:20:20.334Z,100625.44
2023-01-29T00:22:48.796Z,100635.00
2023-01-29T00:25:17.151Z,100623.44
2023-01-29T00:27:45.272Z,100625.94
2023-01-29T00:30:14.937Z,100618.38
2023-01-29T00:32:43.844Z,100628.94
2023-01-29T00:35:12.458Z,100636.69
2023-01-29T00:37:40.957Z,100639.19
2023-01-29T00:40:10.480Z,100637.72
2023-01-29T00:42:57.528Z,100638.50
2023-01-29T00:45:26.037Z,100644.84
2023-01-29T00:47:54.419Z,100643.75
2023-01-29T00:50:23.360Z,100641.94
2023-01-29T00:52:52.941Z,100641.53
2023-01-29T00:55:21.079Z,100635.03
2023-01-29T00:57:50.463Z,100641.38
2023-01-29T01:00:19.825Z,100648.28
2023-01-29T01:03:06.668Z,100651.41
2023-01-29T01:05:37.283Z,100649.91
2023-01-29T01:08:25.570Z,100645.59
2023-01-29T01:11:09.624Z,100646.56
2023-01-29T01:13:37.703Z,100664.09
2023-01-29T01:16:17.469Z,100655.47
2023-01-29T01:18:45.702Z,100654.13
2023-01-29T01:21:14.594Z,100659.06
2023-01-29T01:23:43.703Z,100660.59
2023-01-29T01:26:11.925Z,100661.47
2023-01-29T01:28:40.724Z,100655.91
2023-01-29T01:31:14.028Z,100652.91
2023-01-29T01:33:42.588Z,100667.28
2023-01-29T01:36:10.640Z,100668.28
2023-01-29T01:38:44.931Z,100668.69
2023-01-29T01:41:16.293Z,100663.78
2023-01-29T01:44:29.524Z,100661.34
2023-01-29T01:47:01.131Z,100661.03
2023-01-29T01:49:30.149Z,100657.03
2023-01-29T01:51:59.611Z,100654.50
2023-01-29T01:54:31.646Z,100655.22
2023-01-29T01:57:16.228Z,100655.47
2023-01-29T01:59:54.424Z,100654.03
2023-01-29T02:02:42.761Z,100661.09
2023-01-29T02:05:32.681Z,100670.69
2023-01-29T02:08:19.813Z,100672.13
2023-01-29T02:10:49.983Z,100671.94
2023-01-29T02:13:19.544Z,100670.63
2023-01-29T02:15:48.936Z,100669.47
2023-01-29T02:18:19.392Z,100672.38
2023-01-29T02:21:25.615Z,100672.53
2023-01-29T02:24:16.957Z,100670.59
2023-01-29T02:27:00.864Z,100677.25
2023-01-29T02:29:43.795Z,100675.56
2023-01-29T02:32:54.765Z,100675.31
2023-01-29T02:35:26.080Z,100675.09
2023-01-29T02:38:02.180Z,100687.72
2023-01-29T02:40:51.282Z,100685.75
2023-01-29T02:43:44.637Z,100689.75
2023-01-29T02:46:41.410Z,100691.72
2023-01-29T02:49:36.293Z,100694.87
2023-01-29T02:52:35.865Z,100705.00
2023-01-29T02:55:16.053Z,100693.94
2023-01-29T02:57:49.040Z,100700.84
2023-01-29T03:00:41.468Z,100704.06
2023-01-29T03:03:19.696Z,100705.72
2023-01-29T03:06:08.933Z,100710.63
2023-01-29T03:08:43.047Z,100713.06
2023-01-29T03:11:14.936Z,100705.03
2023-01-29T03:13:55.341Z,100702.16
2023-01-29T03:16:39.244Z,100703.22
2023-01-29T03:19:20.617Z,100704.56
2023-01-29T03:21:59.857Z,100714.69
2023-01-29T03:24:56.463Z,100711.25
2023-01-29T03:27:50.066Z,100714.63
2023-01-29T03:30:37.922Z,100704.41
2023-01-29T03:33:11.611Z,100712.03
2023-01-29T03:35:48.504Z,100716.31
2023-01-29T03:38:17.966Z,100717.00
2023-01-29T03:40:51.227Z,100723.53
2023-01-29T03:43:37.612Z,100725.75
2023-01-29T03:46:08.695Z,100717.06
2023-01-29T03:48:45.712Z,100730.59
2023-01-29T03:51:35.327Z,100724.53
2023-01-29T03:54:40.024Z,100725.31
2023-01-29T03:57:15.481Z,100716.91
2023-01-29T04:00:09.065Z,100722.97
2023-01-29T04:03:03.709Z,100720.53
2023-01-29T04:05:43.642Z,100723.81
2023-01-29T04:08:19.832Z,100714.97
2023-01-29T04:10:51.189Z,100723.72
2023-01-29T04:13:20.417Z,100727.16
2023-01-29T04:15:56.816Z,100716.19
2023-01-29T04:18:25.957Z,100719.19
2023-01-29T04:20:55.904Z,100717.91
2023-01-29T04:23:26.835Z,100723.47
2023-01-29T04:26:08.009Z,100713.22
2023-01-29T04:29:25.174Z,100732.72
2023-01-29T04:32:11.237Z,100729.13
2023-01-29T04:35:36.509Z,100716.78
2023-01-29T04:38:23.870Z,100721.19
2023-01-29T04:41:05.557Z,100725.31
2023-01-29T04:43:55.304Z,100734.50
2023-01-29T04:46:47.074Z,100739.44
2023-01-29T04:49:30.155Z,100731.75
2023-01-29T04:52:04.260Z,100732.78
2023-01-29T04:54:41.468Z,100717.81
2023-01-29T04:57:25.914Z,100726.81
2023-01-29T05:00:13.024Z,100728.25
2023-01-29T05:02:45.016Z,100717.28
2023-01-29T05:05:16.731Z,100724.97
2023-01-29T05:07:47.488Z,100713.50
2023-01-29T05:10:20.355Z,100712.47
2023-01-29T05:12:55.939Z,100722.53
2023-01-29T05:15:32.114Z,100713.03
2023-01-29T05:18:03.301Z,100720.91
2023-01-29T05:20:34.662Z,100721.41
2023-01-29T05:23:03.548Z,100710.66
2023-01-29T05:25:34.129Z,100724.22
2023-01-29T05:28:06.097Z,100717.22
2023-01-29T05:30:37.724Z,100716.41
2023-01-29T05:33:31.034Z,100707.84
2023-01-29T05:36:00.421Z,100720.69
2023-01-29T05:38:29.013Z,100722.94
2023-01-29T05:40:59.217Z,100730.22
2023-01-29T05:43:27.667Z,100724.56
2023-01-29T05:46:00.735Z,100714.91
2023-01-29T05:48:29.762Z,100720.19
2023-01-29T05:51:02.641Z,100726.22
2023-01-29T05:53:32.277Z,100731.53
2023-01-29T05:56:05.192Z,100737.88
2023-01-29T05:58:34.575Z,100738.81
2023-01-29T06:01:18.015Z,100737.72
2023-01-29T06:03:46.920Z,100738.91
2023-01-29T06:06:15.212Z,100749.97
2023-01-29T06:08:43.636Z,100740.56
2023-01-29T06:11:13.533Z,100738.97
2023-01-29T06:13:42.048Z,100737.00
2023-01-29T06:16:11.857Z,100745.56
2023-01-29T06:18:41.117Z,100756.66
2023-01-29T06:21:11.854Z,100755.22
2023-01-29T06:23:40.767Z,100761.38
2023-01-29T06:26:12.240Z,100763.44
2023-01-29T06:28:40.890Z,100770.16
2023-01-29T06:31:37.774Z,100774.59
2023-01-29T06:33:59.021Z,100775.38
2023-01-29T06:36:27.237Z,100776.22
2023-01-29T06:38:55.568Z,100785.13
2023-01-29T06:41:25.717Z,100785.59
2023-01-29T06:43:54.035Z,100785.38
2023-01-29T06:46:22.272Z,100788.75
2023-01-29T06:48:50.696Z,100801.03
2023-01-29T06:51:18.929Z,100793.16
2023-01-29T06:53:47.091Z,100789.09
2023-01-29T06:56:15.621Z,100795.63
2023-01-29T06:58:43.776Z,100800.41
2023-01-29T07:01:25.389Z,100792.31
2023-01-29T07:04:01.848Z,100798.50
2023-01-29T07:06:30.802Z,100800.75
2023-01-29T07:08:59.037Z,100791.97
2023-01-29T07:11:27.568Z,100789.56
2023-01-29T07:13:55.791Z,100784.56
2023-01-29T07:16:25.101Z,100784.09
2023-01-29T07:18:53.726Z,100779.03
2023-01-29T07:21:22.000Z,100774.03
2023-01-29T07:23:50.160Z,100775.72
2023-01-29T07:26:19.392Z,100775.66
2023-01-29T07:28:47.478Z,100773.09
2023-01-29T07:31:15.833Z,100780.19
2023-01-29T07:33:45.484Z,100763.41
2023-01-29T07:36:14.749Z,100765.75
2023-01-29T07:38:43.153Z,100767.91
2023-01-29T07:41:11.954Z,100765.22
2023-01-29T07:43:40.168Z,100767.66
2023-01-29T07:46:08.511Z,100781.59
2023-01-29T07:48:37.354Z,100752.28
2023-01-29T07:51:05.624Z,100745.66
2023-01-29T07:53:34.028Z,100755.03
2023-01-29T07:56:02.645Z,100769.06
2023-01-29T07:58:30.775Z,100769.13
2023-01-29T08:00:58.998Z,100763.47
2023-01-29T08:03:27.504Z,100757.28
2023-01-29T08:05:57.637Z,100771.47
2023-01-29T08:08:26.389Z,100761.09
2023-01-29T08:10:55.102Z,100761.38
2023-01-29T08:13:23.187Z,100767.59
2023-01-29T08:15:51.343Z,100768.59
2023-01-29T08:18:20.281Z,100774.16
2023-01-29T08:20:48.360Z,100784.09
2023-01-29T08:23:16.704Z,100780.94
2023-01-29T08:25:45.364Z,100785.31
2023-01-29T08:28:13.945Z,100781.66
2023-01-29T08:30:44.090Z,100786.88
2023-01-29T08:33:13.028Z,100786.72
2023-01-29T08:35:41.342Z,100786.53
2023-01-29T08:38:10.319Z,100785.38
2023-01-29T08:40:39.188Z,100789.31
2023-01-29T08:43:09.463Z,100791.25
2023-01-29T08:45:40.369Z,100801.03
2023-01-29T08:48:09.979Z,100795.69
2023-01-29T08:50:38.691Z,100821.25
2023-01-29T08:53:08.624Z,100809.66
2023-01-29T08:55:39.992Z,100815.31
2023-01-29T08:58:11.075Z,100815.44
2023-01-29T09:00:40.153Z,100815.44
2023-01-29T09:03:10.085Z,100816.25
2023-01-29T09:05:40.769Z,100807.50
2023-01-29T09:08:10.032Z,100810.63
2023-01-29T09:10:38.366Z,100812.66
2023-01-29T09:13:06.756Z,100822.06
2023-01-29T09:15:35.756Z,100809.59
2023-01-29T09:18:05.432Z,100822.47
2023-01-29T09:20:33.923Z,100818.50
2023-01-29T09:23:11.120Z,100815.00
2023-01-29T09:25:39.370Z,100812.00
2023-01-29T09:28:07.936Z,100818.28
2023-01-29T09:30:38.218Z,100809.59
2023-01-29T09:33:07.818Z,100826.31
2023-01-29T09:35:36.446Z,100821.53
2023-01-29T09:38:05.237Z,100822.34
2023-01-29T09:40:48.614Z,100827.72
2023-01-29T09:43:41.661Z,100836.22
2023-01-29T09:46:33.090Z,100829.97
2023-01-29T09:49:19.340Z,100832.75
2023-01-29T09:51:53.120Z,100832.44
2023-01-29T09:54:46.389Z,100815.28
2023-01-29T09:57:49.398Z,100830.03
2023-01-29T10:00:48.361Z,100836.44
2023-01-29T10:03:46.877Z,100826.31
2023-01-29T10:06:52.313Z,100840.84
2023-01-29T10:09:42.477Z,100839.56
2023-01-29T10:12:28.678Z,100838.75
2023-01-29T10:15:19.253Z,100849.94
2023-01-29T10:17:53.539Z,100850.16
2023-01-29T10:20:40.538Z,100840.84
2023-01-29T10:23:36.447Z,100828.34
2023-01-29T10:26:05.058Z,100829.03
2023-01-29T10:28:50.703Z,100838.88
2023-01-29T10:31:31.843Z,100828.91
2023-01-29T10:34:07.430Z,100845.34
2023-01-29T10:36:44.212Z,100838.31
2023-01-29T10:39:26.426Z,100837.66
2023-01-29T10:42:01.826Z,100826.16
2023-01-29T10:44:32.665Z,100832.28
2023-01-29T10:47:35.028Z,100833.19
2023-01-29T10:50:37.525Z,100818.47
2023-01-29T10:53:39.887Z,100816.31
2023-01-29T10:56:23.047Z,100812.22
2023-01-29T10:58:55.965Z,100803.50
2023-01-29T11:01:24.267Z,100803.94
2023-01-29T11:04:04.710Z,100801.69
2023-01-29T11:06:35.434Z,100795.66
2023-01-29T11:09:25.337Z,100794.72
2023-01-29T11:11:56.632Z,100791.59
2023-01-29T11:14:30.042Z,100786.88
2023-01-29T11:16:59.028Z,100774.44
2023-01-29T11:19:42.902Z,100761.03
2023-01-29T11:22:20.153Z,100775.06
2023-01-29T11:25:10.097Z,100769.13
2023-01-29T11:27:50.524Z,100753.81
2023-01-29T11:30:24.680Z,100755.28
2023-01-29T11:33:06.214Z,100750.44
2023-01-29T11:35:35.733Z,100751.41
2023-01-29T11:38:16.407Z,100741.06
2023-01-29T11:40:45.589Z,100735.06
2023-01-29T11:43:18.549Z,100714.09
2023-01-29T11:45:51.803Z,100717.47
2023-01-29T11:48:23.006Z,100721.13
2023-01-29T11:50:58.860Z,100718.25
2023-01-29T11:53:35.959Z,100730.47
2023-01-29T11:56:16.349Z,100715.19
2023-01-29T11:58:46.076Z,100725.97
2023-01-29T12:01:23.638Z,100727.00
2023-01-29T12:03:54.009Z,100735.56
2023-01-29T12:06:32.770Z,100728.31
2023-01-29T12:09:09.616Z,100720.16
2023-01-29T12:11:38.566Z,100723.31
2023-01-29T12:14:28.968Z,100725.31
2023-01-29T12:17:08.646Z,100719.59
2023-01-29T12:19:51.320Z,100727.00
2023-01-29T12:22:47.808Z,100735.75
2023-01-29T12:25:22.963Z,100725.44
2023-01-29T12:28:31.839Z,100726.97
2023-01-29T12:31:00.516Z,100719.47
2023-01-29T12:33:51.581Z,100739.13
2023-01-29T12:36:38.440Z,100732.50
2023-01-29T12:39:08.956Z,100738.13
2023-01-29T12:41:48.143Z,100727.22
2023-01-29T12:44:25.865Z,100728.50
2023-01-29T12:46:58.924Z,100728.63
2023-01-29T12:49:32.266Z,100721.19
2023-01-29T12:52:19.365Z,100718.44
2023-01-29T12:55:08.548Z,100714.25
2023-01-29T12:57:52.373Z,100712.06
2023-01-29T13:00:34.245Z,100702.06
2023-01-29T13:03:19.654Z,100704.34
2023-01-29T13:05:50.377Z,100690.06
2023-01-29T13:08:27.869Z,100674.84
2023-01-29T13:10:58.540Z,100684.59
2023-01-29T13:13:36.999Z,100681.50
2023-01-29T13:16:12.521Z,100671.91
2023-01-29T13:18:53.000Z,100666.00
2023-01-29T13:21:29.506Z,100660.34
2023-01-29T13:24:03.697Z,100666.38
2023-01-29T13:26:32.917Z,100661.38
2023-01-29T13:29:02.515Z,100666.06
2023-01-29T13:31:34.869Z,100661.25
2023-01-29T13:34:24.631Z,100669.84
2023-01-29T13:36:56.074Z,100665.09
2023-01-29T13:39:32.071Z,100678.75
2023-01-29T13:42:03.243Z,100677.16
2023-01-29T13:44:39.923Z,100667.94
2023-01-29T13:47:11.971Z,100663.75
2023-01-29T13:49:56.481Z,100675.72
2023-01-29T13:52:58.913Z,100670.91
2023-01-29T13:55:32.556Z,100651.97
2023-01-29T13:58:02.849Z,100647.94
2023-01-29T14:00:34.493Z,100668.56
2023-01-29T14:03:08.830Z,100671.56
2023-01-29T14:05:55.219Z,100655.69
2023-01-29T14:08:36.183Z,100677.03
2023-01-29T14:11:13.554Z,100673.63
2023-01-29T14:13:44.870Z,100683.09
2023-01-29T14:16:12.885Z,100684.53
2023-01-29T14:18:53.101Z,100680.47
2023-01-29T14:21:36.421Z,100673.12
2023-01-29T14:24:21.427Z,100674.44
2023-01-29T14:26:54.757Z,100680.00
2023-01-29T14:29:34.658Z,100682.16
2023-01-29T14:32:06.581Z,100679.19
2023-01-29T14:34:59.636Z,100673.81
2023-01-29T14:37:39.720Z,100686.16
2023-01-29T14:40:30.259Z,100677.37
2023-01-29T14:43:06.418Z,100672.97
2023-01-29T14:45:38.891Z,100670.63
2023-01-29T14:48:10.511Z,100677.25
2023-01-29T14:50:50.402Z,100677.37
2023-01-29T14:53:59.575Z,100678.25
2023-01-29T14:56:31.273Z,100688.03
2023-01-29T14:59:14.182Z,100676.63
2023-01-29T15:01:48.607Z,100678.00
2023-01-29T15:04:39.299Z,100682.00
2023-01-29T15:07:10.237Z,100672.91
2023-01-29T15:09:54.227Z,100658.34
2023-01-29T15:12:47.169Z,100648.13
2023-01-29T15:15:27.094Z,100659.84
2023-01-29T15:18:05.603Z,100656.66
2023-01-29T15:20:40.127Z,100655.16
2023-01-29T15:23:30.762Z,100656.22
2023-01-29T15:26:01.934Z,100648.75
2023-01-29T15:28:33.150Z,100650.19
2023-01-29T15:31:04.747Z,100656.34
2023-01-29T15:33:35.062Z,100649.25
2023-01-29T15:36:09.357Z,100654.91
2023-01-29T15:38:37.979Z,100664.63
2023-01-29T15:41:21.631Z,100651.13
2023-01-29T15:43:58.084Z,100663.66
2023-01-29T15:46:36.549Z,100664.78
2023-01-29T15:49:19.851Z,100657.28
2023-01-29T15:51:49.420Z,100672.09
2023-01-29T15:54:18.355Z,100671.59
2023-01-29T15:56:56.472Z,100671.84
2023-01-29T15:59:28.256Z,100674.16
2023-01-29T16:01:57.294Z,100663.38
2023-01-29T16:04:31.519Z,100658.38
2023-01-29T16:07:01.942Z,100674.69
2023-01-29T16:09:31.009Z,100671.66
2023-01-29T16:12:00.033Z,100673.94
2023-01-29T16:14:30.171Z,100681.19
2023-01-29T16:17:11.668Z,100677.87
2023-01-29T16:19:40.885Z,100679.28
2023-01-29T16:22:09.850Z,100678.34
2023-01-29T16:24:39.399Z,100680.66
2023-01-29T16:27:13.361Z,100684.19
2023-01-29T16:29:42.856Z,100683.41
2023-01-29T16:32:13.921Z,100693.63
2023-01-29T16:34:48.993Z,100687.22
2023-01-29T16:37:28.061Z,100694.56
2023-01-29T16:39:57.889Z,100699.19
2023-01-29T16:42:28.875Z,100691.69
2023-01-29T16:45:05.470Z,100706.94
2023-01-29T16:47:33.776Z,100708.75
2023-01-29T16:50:02.644Z,100698.31
2023-01-29T16:52:35.560Z,100696.69
2023-01-29T16:55:21.255Z,100705.50
2023-01-29T16:57:56.356Z,100706.56
2023-01-29T17:00:28.484Z,100711.03
2023-01-29T17:03:04.540Z,100698.25
2023-01-29T17:05:37.016Z,100707.81
2023-01-29T17:08:07.552Z,100710.03
2023-01-29T17:10:36.416Z,100704.69
2023-01-29T17:13:15.402Z,100702.66
2023-01-29T17:15:47.013Z,100704.66
2023-01-29T17:18:25.509Z,100704.50
2023-01-29T17:20:54.376Z,100690.56
2023-01-29T17:23:23.297Z,100686.91
2023-01-29T17:25:51.972Z,100692.41
2023-01-29T17:28:20.495Z,100688.72
2023-01-29T17:31:04.984Z,100679.53
2023-01-29T17:33:43.412Z,100665.06
2023-01-29T17:36:14.432Z,100663.56
2023-01-29T17:38:45.720Z,100661.94
2023-01-29T17:41:28.369Z,100671.31
2023-01-29T17:43:57.429Z,100671.37
2023-01-29T17:46:27.459Z,100663.66
2023-01-29T17:48:55.816Z,100658.50
2023-01-29T17:51:25.069Z,100656.00
2023-01-29T17:53:53.553Z,100653.38
2023-01-29T17:56:29.769Z,100656.91
2023-01-29T17:58:59.090Z,100642.62
2023-01-29T18:01:27.471Z,100648.72
2023-01-29T18:03:56.190Z,100657.34
2023-01-29T18:06:30.134Z,100659.78
2023-01-29T18:09:22.618Z,100661.91
2023-01-29T18:11:52.030Z,100648.38
2023-01-29T18:14:20.792Z,100656.25
2023-01-29T18:16:49.325Z,100652.22
2023-01-29T18:19:23.268Z,100644.91
2023-01-29T18:21:52.638Z,100644.06
2023-01-29T18:24:21.211Z,100644.69
2023-01-29T18:26:51.398Z,100644.72
2023-01-29T18:29:20.009Z,100626.97
2023-01-29T18:31:49.711Z,100634.75
2023-01-29T18:34:19.032Z,100629.97
2023-01-29T18:36:47.911Z,100631.94
2023-01-29T18:39:17.348Z,100620.75
2023-01-29T18:41:46.316Z,100624.16
2023-01-29T18:44:14.911Z,100631.41
2023-01-29T18:46:44.412Z,100632.03
2023-01-29T18:49:13.003Z,100621.09
2023-01-29T18:51:41.720Z,100621.03
2023-01-29T18:54:12.887Z,100631.19
2023-01-29T18:57:08.257Z,100637.78
2023-01-29T18:59:31.162Z,100624.38
2023-01-29T19:02:01.041Z,100637.06
2023-01-29T19:04:29.960Z,100635.91
2023-01-29T19:06:58.398Z,100626.72
2023-01-29T19:09:27.175Z,100629.03
2023-01-29T19:11:55.699Z,100629.78
2023-01-29T19:14:24.122Z,100623.37
2023-01-29T19:16:53.281Z,100619.13
2023-01-29T19:19:21.892Z,100622.25
2023-01-29T19:21:52.802Z,100622.06
2023-01-29T19:24:22.533Z,100628.84
2023-01-29T19:26:51.304Z,100624.91
2023-01-29T19:29:20.232Z,100626.75
2023-01-29T19:31:50.356Z,100618.94
2023-01-29T19:34:19.241Z,100616.41
2023-01-29T19:36:47.724Z,100612.59
2023-01-29T19:39:17.704Z,100604.50
2023-01-29T19:41:46.603Z,100604.50
2023-01-29T19:44:15.973Z,100614.72
2023-01-29T19:46:47.017Z,100594.06
2023-01-29T19:49:15.284Z,100594.22
2023-01-29T19:51:44.505Z,100605.12
2023-01-29T19:54:13.427Z,100616.19
2023-01-29T19:56:41.822Z,100624.06
2023-01-29T19:59:11.388Z,100616.28
2023-01-29T20:01:40.722Z,100622.41
2023-01-29T20:04:09.555Z,100618.78
2023-01-29T20:06:38.098Z,100627.25
2023-01-29T20:09:07.022Z,100626.63
2023-01-29T20:11:35.848Z,100627.37
2023-01-29T20:14:04.366Z,100627.50
2023-01-29T20:16:32.923Z,100613.56
2023-01-29T20:19:14.491Z,100614.78
2023-01-29T20:21:51.569Z,100604.81
2023-01-29T20:24:20.063Z,100594.47
2023-01-29T20:26:49.330Z,100585.13
2023-01-29T20:29:18.591Z,100596.44
2023-01-29T20:31:47.172Z,100590.25
2023-01-29T20:34:16.534Z,100607.13
2023-01-29T20:36:44.971Z,100600.44
2023-01-29T20:39:13.683Z,100581.81
2023-01-29T20:41:42.320Z,100580.06
2023-01-29T20:44:10.893Z,100580.19
2023-01-29T20:46:39.699Z,100587.25
2023-01-29T20:49:08.803Z,100565.59
2023-01-29T20:51:38.256Z,100586.13
2023-01-29T20:54:08.100Z,100588.66
2023-01-29T20:56:42.396Z,100598.06
2023-01-29T20:59:13.381Z,100598.16
2023-01-29T21:01:42.693Z,100590.34
2023-01-29T21:04:10.694Z,100606.50
2023-01-29T21:06:39.872Z,100599.22
2023-01-29T21:09:08.374Z,100605.97
2023-01-29T21:11:36.915Z,100616.87
2023-01-29T21:14:06.212Z,100617.44
2023-01-29T21:16:34.701Z,100626.63
2023-01-29T21:19:03.391Z,100622.53
2023-01-29T21:21:32.661Z,100632.91
2023-01-29T21:24:01.032Z,100617.38
2023-01-29T21:26:29.698Z,100620.75
2023-01-29T21:28:58.307Z,100619.63
2023-01-29T21:31:26.557Z,100614.84
2023-01-29T21:33:54.895Z,100622.50
2023-01-29T21:36:23.917Z,100615.12
2023-01-29T21:38:52.075Z,100611.94
2023-01-29T21:41:40.465Z,100605.47
2023-01-29T21:44:09.598Z,100620.72
2023-01-29T21:46:38.109Z,100611.59
2023-01-29T21:49:06.480Z,100620.22
2023-01-29T21:51:35.291Z,100617.72
2023-01-29T21:54:03.622Z,100615.78
2023-01-29T21:56:31.936Z,100620.06
2023-01-29T21:59:01.678Z,100612.94
2023-01-29T22:01:37.536Z,100615.78
2023-01-29T22:04:09.092Z,100613.53
2023-01-29T22:06:37.306Z,100605.66
2023-01-29T22:09:05.374Z,100597.16
2023-01-29T22:11:34.269Z,100596.37
2023-01-29T22:14:02.314Z,100574.91
2023-01-29T22:16:30.435Z,100578.88
2023-01-29T22:18:59.225Z,100582.44
2023-01-29T22:21:27.303Z,100592.19
2023-01-29T22:23:55.422Z,100573.81
2023-01-29T22:26:24.117Z,100568.75
2023-01-29T22:28:52.488Z,100559.81
2023-01-29T22:31:20.758Z,100547.62
2023-01-29T22:33:49.422Z,100551.81
2023-01-29T22:36:17.716Z,100547.50
2023-01-29T22:38:46.678Z,100556.34
2023-01-29T22:41:15.762Z,100548.50
2023-01-29T22:43:44.179Z,100545.00
2023-01-29T22:46:12.399Z,100536.63
2023-01-29T22:48:41.165Z,100533.09
2023-01-29T22:51:10.364Z,100527.06
2023-01-29T22:53:44.628Z,100528.66
2023-01-29T22:56:13.322Z,100535.69
2023-01-29T22:58:42.106Z,100535.69
2023-01-29T23:01:10.965Z,100531.28
2023-01-29T23:03:39.357Z,100516.31
2023-01-29T23:06:07.486Z,100523.91
2023-01-29T23:08:35.982Z,100519.88
2023-01-29T23:11:15.245Z,100515.72
2023-01-29T23:13:54.302Z,100515.50
2023-01-29T23:16:27.969Z,100523.94
2023-01-29T23:18:57.157Z,100521.69
2023-01-29T23:21:27.686Z,100523.19
2023-01-29T23:23:58.424Z,100516.50
2023-01-29T23:26:47.378Z,100509.78
2023-01-29T23:29:16.336Z,100505.34
2023-01-29T23:31:44.995Z,100497.94
2023-01-29T23:34:14.060Z,100503.78
2023-01-29T23:36:42.549Z,100491.44
2023-01-29T23:39:11.635Z,100493.31
2023-01-29T23:41:39.826Z,100499.34
2023-01-29T23:44:08.497Z,100496.94
2023-01-29T23:46:36.932Z,100486.34
2023-01-29T23:49:05.067Z,100480.50
2023-01-29T23:51:33.690Z,100487.19
2023-01-29T23:54:02.863Z,100486.47
2023-01-29T23:56:31.244Z,100478.50
2023-01-29T23:58:59.660Z,100472.78
